Time,TemperatureF,DewpointF,PressureIn,WindDirection,WindDirectionDegrees,WindSpeedMPH,WindSpeedGustMPH,Humidity,HourlyPrecipIn,Conditions,Clouds,dailyrainin,SoftwareType,DateUTC
2013-03-06 01:00:00,29.0,24.0,29.84,NNE,30,15.0,-999.0,81,-99.99,,,-99.99,,2013-03-06 06:00:00,
2013-03-06 01:21:00,29.0,24.0,29.84,NNE,30,15.0,-999.0,81,-99.99,,,-99.99,,2013-03-06 06:21:00,
2013-03-06 01:31:00,29.0,24.0,29.84,NNE,30,15.0,-999.0,81,-99.99,,,-99.99,,2013-03-06 06:31:00,
2013-03-06 01:41:00,29.0,24.0,29.84,NNE,30,15.0,-999.0,81,-99.99,,,-99.99,,2013-03-06 06:41:00,
2013-03-06 01:52:00,29.0,24.0,29.84,NNE,30,15.0,-999.0,81,-99.99,,,-99.99,,2013-03-06 06:52:00,
2013-03-06 02:00:00,29.0,24.0,29.84,NNE,30,15.0,-999.0,83,-99.99,,,-99.99,,2013-03-06 07:00:00,
2013-03-06 02:21:00,29.0,24.0,29.84,NNE,30,15.0,-999.0,83,-99.99,,,-99.99,,2013-03-06 07:21:00,
2013-03-06 02:31:00,29.0,24.0,29.84,NNE,30,15.0,-999.0,83,-99.99,,,-99.99,,2013-03-06 07:31:00,
2013-03-06 02:41:00,29.0,24.0,29.84,NNE,30,15.0,-999.0,83,-99.99,,,-99.99,,2013-03-06 07:41:00,
2013-03-06 02:52:00,29.0,24.0,29.84,NNE,30,15.0,-999.0,83,-99.99,,,-99.99,,2013-03-06 07:52:00,
2013-03-06 03:00:00,28.0,25.0,29.86,NNE,20,11.0,-999.0,85,-99.99,,,-99.99,,2013-03-06 08:00:00,
2013-03-06 03:21:00,28.0,25.0,29.86,NNE,20,11.0,-999.0,85,-99.99,,,-99.99,,2013-03-06 08:21:00,
2013-03-06 03:31:00,28.0,25.0,29.86,NNE,20,11.0,-999.0,85,-99.99,,,-99.99,,2013-03-06 08:31:00,
2013-03-06 03:41:00,28.0,25.0,29.86,NNE,20,11.0,-999.0,85,-99.99,,,-99.99,,2013-03-06 08:41:00,
2013-03-06 03:52:00,28.0,25.0,29.86,NNE,20,11.0,-999.0,85,-99.99,,,-99.99,,2013-03-06 08:52:00,
2013-03-06 04:00:00,29.0,25.0,29.87,NNE,20,13.0,-999.0,84,-99.99,,,-99.99,,2013-03-06 09:00:00,
2013-03-06 04:21:00,29.0,25.0,29.87,NNE,20,13.0,-999.0,84,-99.99,,,-99.99,,2013-03-06 09:21:00,
2013-03-06 04:31:00,29.0,25.0,29.87,NNE,20,13.0,-999.0,84,-99.99,,,-99.99,,2013-03-06 09:31:00,
2013-03-06 04:41:00,29.0,25.0,29.87,NNE,20,13.0,-999.0,84,-99.99,,,-99.99,,2013-03-06 09:41:00,
2013-03-06 04:51:00,29.0,25.0,29.87,NNE,20,13.0,-999.0,84,-99.99,,,-99.99,,2013-03-06 09:51:00,
2013-03-06 05:00:00,29.0,25.0,29.90,NNE,20,10.0,-999.0,84,-99.99,,,-99.99,,2013-03-06 10:00:00,
2013-03-06 05:21:00,29.0,25.0,29.90,NNE,20,10.0,-999.0,84,-99.99,,,-99.99,,2013-03-06 10:21:00,
2013-03-06 05:31:00,29.0,25.0,29.90,NNE,20,10.0,-999.0,84,-99.99,,,-99.99,,2013-03-06 10:31:00,
2013-03-06 05:41:00,29.0,25.0,29.90,NNE,20,10.0,-999.0,84,-99.99,,,-99.99,,2013-03-06 10:41:00,
2013-03-06 05:51:00,29.0,25.0,29.90,NNE,20,10.0,-999.0,84,-99.99,,,-99.99,,2013-03-06 10:51:00,
2013-03-06 06:00:00,29.0,25.0,29.94,NNE,30,10.0,-999.0,84,-99.99,,,-99.99,,2013-03-06 11:00:00,
2013-03-06 06:22:00,29.0,25.0,29.94,NNE,30,10.0,-999.0,84,-99.99,,,-99.99,,2013-03-06 11:22:00,
2013-03-06 06:31:00,29.0,25.0,29.94,NNE,30,10.0,-999.0,84,-99.99,,,-99.99,,2013-03-06 11:31:00,
2013-03-06 06:42:00,29.0,25.0,29.94,NNE,30,10.0,-999.0,84,-99.99,,,-99.99,,2013-03-06 11:42:00,
2013-03-06 06:52:00,29.0,25.0,29.94,NNE,30,10.0,-999.0,84,-99.99,,,-99.99,,2013-03-06 11:52:00,
2013-03-06 07:00:00,29.0,25.0,29.97,NNE,30,9.0,-999.0,84,-99.99,,,-99.99,,2013-03-06 12:00:00,
2013-03-06 07:21:00,29.0,25.0,29.97,NNE,30,9.0,-999.0,84,-99.99,,,-99.99,,2013-03-06 12:21:00,
2013-03-06 07:32:00,29.0,25.0,29.97,NNE,30,9.0,-999.0,84,-99.99,,,-99.99,,2013-03-06 12:32:00,
2013-03-06 07:42:00,29.0,25.0,29.97,NNE,30,9.0,-999.0,84,-99.99,,,-99.99,,2013-03-06 12:42:00,
2013-03-06 07:52:00,29.0,25.0,29.97,NNE,30,9.0,-999.0,84,-99.99,,,-99.99,,2013-03-06 12:52:00,
2013-03-06 08:00:00,30.0,25.0,30.01,NNE,20,10.0,-999.0,83,-99.99,,,-99.99,,2013-03-06 13:00:00,
2013-03-06 08:21:00,30.0,25.0,30.01,NNE,20,10.0,-999.0,83,-99.99,,,-99.99,,2013-03-06 13:21:00,
2013-03-06 08:31:00,30.0,25.0,30.01,NNE,20,10.0,-999.0,83,-99.99,,,-99.99,,2013-03-06 13:31:00,
2013-03-06 08:41:00,30.0,25.0,30.01,NNE,20,10.0,-999.0,83,-99.99,,,-99.99,,2013-03-06 13:41:00,
2013-03-06 08:51:00,30.0,25.0,30.01,NNE,20,10.0,-999.0,83,-99.99,,,-99.99,,2013-03-06 13:51:00,
2013-03-06 09:00:00,32.0,27.0,30.04,NE,40,11.0,-999.0,81,-99.99,,,-99.99,,2013-03-06 14:00:00,
2013-03-06 09:21:00,32.0,27.0,30.04,NE,40,11.0,-999.0,81,-99.99,,,-99.99,,2013-03-06 14:21:00,
2013-03-06 09:31:00,32.0,27.0,30.04,NE,40,11.0,-999.0,81,-99.99,,,-99.99,,2013-03-06 14:31:00,
2013-03-06 09:41:00,32.0,27.0,30.04,NE,40,11.0,-999.0,81,-99.99,,,-99.99,,2013-03-06 14:41:00,
2013-03-06 09:52:00,32.0,27.0,30.04,NE,40,11.0,-999.0,81,-99.99,,,-99.99,,2013-03-06 14:52:00,
2013-03-06 10:00:00,35.0,28.0,30.07,ENE,60,8.0,-999.0,76,-99.99,,,-99.99,,2013-03-06 15:00:00,
2013-03-06 10:21:00,35.0,28.0,30.07,ENE,60,8.0,-999.0,76,-99.99,,,-99.99,,2013-03-06 15:21:00,
2013-03-06 10:32:00,35.0,28.0,30.07,ENE,60,8.0,-999.0,76,-99.99,,,-99.99,,2013-03-06 15:32:00,
2013-03-06 10:41:00,35.0,28.0,30.07,ENE,60,8.0,-999.0,76,-99.99,,,-99.99,,2013-03-06 15:41:00,
2013-03-06 10:51:00,35.0,28.0,30.07,ENE,60,8.0,-999.0,76,-99.99,,,-99.99,,2013-03-06 15:51:00,
2013-03-06 11:00:00,36.0,29.0,30.10,NE,50,8.0,-999.0,75,-99.99,,,-99.99,,2013-03-06 16:00:00,
2013-03-06 11:21:00,36.0,29.0,30.10,NE,50,8.0,-999.0,75,-99.99,,,-99.99,,2013-03-06 16:21:00,
2013-03-06 11:32:00,36.0,29.0,30.10,NE,50,8.0,-999.0,75,-99.99,,,-99.99,,2013-03-06 16:32:00,
2013-03-06 11:41:00,36.0,29.0,30.10,NE,50,8.0,-999.0,75,-99.99,,,-99.99,,2013-03-06 16:41:00,
2013-03-06 11:51:00,36.0,29.0,30.10,NE,50,8.0,-999.0,75,-99.99,,,-99.99,,2013-03-06 16:51:00,
2013-03-06 13:00:00,38.0,29.0,30.12,NNE,20,7.0,-999.0,71,-99.99,,,-99.99,,2013-03-06 18:00:00,
2013-03-06 13:28:00,38.0,29.0,30.12,NNE,20,7.0,-999.0,71,-99.99,,,-99.99,,2013-03-06 18:28:00,
2013-03-06 13:41:00,38.0,29.0,30.12,NNE,20,7.0,-999.0,71,-99.99,,,-99.99,,2013-03-06 18:41:00,
2013-03-06 13:52:00,38.0,29.0,30.12,NNE,20,7.0,-999.0,71,-99.99,,,-99.99,,2013-03-06 18:52:00,
2013-03-06 14:00:00,38.0,29.0,30.13,NNW,330,7.0,-999.0,70,-99.99,,,-99.99,,2013-03-06 19:00:00,
2013-03-06 14:21:00,38.0,29.0,30.13,NNW,330,7.0,-999.0,70,-99.99,,,-99.99,,2013-03-06 19:21:00,
2013-03-06 14:31:00,38.0,29.0,30.13,NNW,330,7.0,-999.0,70,-99.99,,,-99.99,,2013-03-06 19:31:00,
2013-03-06 14:42:00,38.0,29.0,30.13,NNW,330,7.0,-999.0,70,-99.99,,,-99.99,,2013-03-06 19:42:00,
2013-03-06 14:52:00,38.0,29.0,30.13,NNW,330,7.0,-999.0,70,-99.99,,,-99.99,,2013-03-06 19:52:00,
2013-03-06 15:00:00,39.0,29.0,30.14,NNW,330,3.0,-999.0,67,-99.99,,,-99.99,,2013-03-06 20:00:00,
2013-03-06 15:21:00,39.0,29.0,30.14,NNW,330,3.0,-999.0,67,-99.99,,,-99.99,,2013-03-06 20:21:00,
2013-03-06 15:31:00,39.0,29.0,30.14,NNW,330,3.0,-999.0,67,-99.99,,,-99.99,,2013-03-06 20:31:00,
2013-03-06 15:41:00,39.0,29.0,30.14,NNW,330,3.0,-999.0,67,-99.99,,,-99.99,,2013-03-06 20:41:00,
2013-03-06 15:52:00,39.0,29.0,30.14,NNW,330,3.0,-999.0,67,-99.99,,,-99.99,,2013-03-06 20:52:00,
2013-03-06 16:00:00,38.0,29.0,30.14,West,270,1.0,-999.0,69,-99.99,,,-99.99,,2013-03-06 21:00:00,
2013-03-06 16:21:00,38.0,29.0,30.14,West,270,1.0,-999.0,69,-99.99,,,-99.99,,2013-03-06 21:21:00,
2013-03-06 16:31:00,38.0,29.0,30.14,West,270,1.0,-999.0,69,-99.99,,,-99.99,,2013-03-06 21:31:00,
2013-03-06 16:41:00,38.0,29.0,30.14,West,270,1.0,-999.0,69,-99.99,,,-99.99,,2013-03-06 21:41:00,
2013-03-06 16:51:00,38.0,29.0,30.14,West,270,1.0,-999.0,69,-99.99,,,-99.99,,2013-03-06 21:51:00,
2013-03-06 17:00:00,35.0,30.0,30.16,SSW,200,6.0,-999.0,82,-99.99,,,-99.99,,2013-03-06 22:00:00,
2013-03-06 17:21:00,35.0,30.0,30.16,SSW,200,6.0,-999.0,82,-99.99,,,-99.99,,2013-03-06 22:21:00,
2013-03-06 17:31:00,35.0,30.0,30.16,SSW,200,6.0,-999.0,82,-99.99,,,-99.99,,2013-03-06 22:31:00,
2013-03-06 17:41:00,35.0,30.0,30.16,SSW,200,6.0,-999.0,82,-99.99,,,-99.99,,2013-03-06 22:41:00,
2013-03-06 17:51:00,35.0,30.0,30.16,SSW,200,6.0,-999.0,82,-99.99,,,-99.99,,2013-03-06 22:51:00,
2013-03-06 18:00:00,33.0,30.0,30.18,SSW,200,7.0,-999.0,85,-99.99,,,-99.99,,2013-03-06 23:00:00,
2013-03-06 18:21:00,33.0,30.0,30.18,SSW,200,7.0,-999.0,85,-99.99,,,-99.99,,2013-03-06 23:21:00,
2013-03-06 18:31:00,33.0,30.0,30.18,SSW,200,7.0,-999.0,85,-99.99,,,-99.99,,2013-03-06 23:31:00,
2013-03-06 18:41:00,33.0,30.0,30.18,SSW,200,7.0,-999.0,85,-99.99,,,-99.99,,2013-03-06 23:41:00,
2013-03-06 18:52:00,33.0,30.0,30.18,SSW,200,7.0,-999.0,85,-99.99,,,-99.99,,2013-03-06 23:52:00,
2013-03-06 19:00:00,34.0,30.0,30.19,SSW,210,6.0,-999.0,85,-99.99,,,-99.99,,2013-03-07 00:00:00,
2013-03-06 19:21:00,34.0,30.0,30.19,SSW,210,6.0,-999.0,85,-99.99,,,-99.99,,2013-03-07 00:21:00,
2013-03-06 19:31:00,34.0,30.0,30.19,SSW,210,6.0,-999.0,85,-99.99,,,-99.99,,2013-03-07 00:31:00,
2013-03-06 19:41:00,34.0,30.0,30.19,SSW,210,6.0,-999.0,85,-99.99,,,-99.99,,2013-03-07 00:41:00,
2013-03-06 19:51:00,34.0,30.0,30.19,SSW,210,6.0,-999.0,85,-99.99,,,-99.99,,2013-03-07 00:51:00,
2013-03-06 20:00:00,34.0,30.0,30.20,SW,230,5.0,-999.0,85,-99.99,,,-99.99,,2013-03-07 01:00:00,
2013-03-06 20:21:00,34.0,30.0,30.20,SW,230,5.0,-999.0,85,-99.99,,,-99.99,,2013-03-07 01:21:00,
2013-03-06 20:31:00,34.0,30.0,30.20,SW,230,5.0,-999.0,85,-99.99,,,-99.99,,2013-03-07 01:31:00,
2013-03-06 20:41:00,34.0,30.0,30.20,SW,230,5.0,-999.0,85,-99.99,,,-99.99,,2013-03-07 01:41:00,
2013-03-06 20:51:00,34.0,30.0,30.20,SW,230,5.0,-999.0,85,-99.99,,,-99.99,,2013-03-07 01:51:00,
2013-03-06 21:00:00,36.0,28.0,30.21,NW,320,7.0,-999.0,74,-99.99,,,-99.99,,2013-03-07 02:00:00,
2013-03-06 21:21:00,36.0,28.0,30.21,NW,320,7.0,-999.0,74,-99.99,,,-99.99,,2013-03-07 02:21:00,
2013-03-06 21:31:00,36.0,28.0,30.21,NW,320,7.0,-999.0,74,-99.99,,,-99.99,,2013-03-07 02:31:00,
2013-03-06 21:41:00,36.0,28.0,30.21,NW,320,7.0,-999.0,74,-99.99,,,-99.99,,2013-03-07 02:41:00,
2013-03-06 21:51:00,36.0,28.0,30.21,NW,320,7.0,-999.0,74,-99.99,,,-99.99,,2013-03-07 02:51:00,
2013-03-06 22:00:00,36.0,29.0,30.22,North,350,9.0,-999.0,76,-99.99,,,-99.99,,2013-03-07 03:00:00,
2013-03-06 22:21:00,36.0,29.0,30.22,North,350,9.0,-999.0,76,-99.99,,,-99.99,,2013-03-07 03:21:00,
2013-03-06 22:31:00,36.0,29.0,30.22,North,350,9.0,-999.0,76,-99.99,,,-99.99,,2013-03-07 03:31:00,
2013-03-06 22:41:00,36.0,29.0,30.22,North,350,9.0,-999.0,76,-99.99,,,-99.99,,2013-03-07 03:41:00,
2013-03-06 22:51:00,36.0,29.0,30.22,North,350,9.0,-999.0,76,-99.99,,,-99.99,,2013-03-07 03:51:00,
2013-03-06 23:00:00,36.0,30.0,30.23,NNE,30,3.0,-999.0,79,-99.99,,,-99.99,,2013-03-07 04:00:00,
2013-03-06 23:21:00,36.0,30.0,30.23,NNE,30,3.0,-999.0,79,-99.99,,,-99.99,,2013-03-07 04:21:00,
2013-03-06 23:31:00,36.0,30.0,30.23,NNE,30,3.0,-999.0,79,-99.99,,,-99.99,,2013-03-07 04:31:00,
2013-03-06 23:41:00,36.0,30.0,30.23,NNE,30,3.0,-999.0,79,-99.99,,,-99.99,,2013-03-07 04:41:00,
2013-03-06 23:51:00,36.0,30.0,30.23,NNE,30,3.0,-999.0,79,-99.99,,,-99.99,,2013-03-07 04:51:00,